Time;durP1;ratioP1;P1;durP2;ratioP2;P2;SDS_P1;SDS_P2;PMS_P1;PMS_P2;Temp;Humidity;BMP_temperature;BMP_pressure;BME280_temperature;BME280_humidity;BME280_pressure;Samples;Min_cycle;Max_cycle;Signal;HPM_P1;HPM_P2
2023/08/15 00:02:21;;;;;;;11.03;10.03;;;;;;;23.70;100.00;157462.00;5030737;28;20454;-90
2023/08/15 00:04:48;;;;;;;9.60;8.80;;;;;;;23.60;100.00;157438.50;5048162;28;20451;-90
2023/08/15 00:07:14;;;;;;;9.30;8.40;;;;;;;23.59;100.00;157434.53;5030289;28;20455;-90
2023/08/15 00:09:41;;;;;;;9.47;8.67;;;;;;;23.63;100.00;157445.03;5016121;28;20578;-90
2023/08/15 00:12:09;;;;;;;9.17;8.47;;;;;;;23.62;100.00;157442.38;5042722;28;20447;-90
2023/08/15 00:14:36;;;;;;;9.53;8.63;;;;;;;23.65;100.00;157450.25;5048172;28;20451;-90
2023/08/15 00:17:02;;;;;;;9.83;9.03;;;;;;;23.71;100.00;157465.94;5050113;28;20458;-90
2023/08/15 00:19:29;;;;;;;9.07;8.27;;;;;;;23.73;100.00;157469.84;5047566;28;20461;-89
2023/08/15 00:21:55;;;;;;;9.90;9.00;;;;;;;23.73;100.00;157471.16;5032165;28;20509;-90
2023/08/15 00:24:22;;;;;;;10.87;9.87;;;;;;;23.71;100.00;157465.94;5036456;28;21306;-90
2023/08/15 00:26:48;;;;;;;11.07;10.00;;;;;;;23.71;100.00;157465.94;5046109;28;20550;-90
2023/08/15 00:29:16;;;;;;;9.60;8.70;;;;;;;23.66;100.00;157452.88;5025181;28;20540;-89
2023/08/15 00:31:43;;;;;;;10.50;9.60;;;;;;;23.58;100.00;157431.97;5047434;28;20998;-90
2023/08/15 00:34:10;;;;;;;10.00;9.10;;;;;;;23.60;100.00;157437.16;5037993;28;20483;-90
2023/08/15 00:36:36;;;;;;;9.87;8.97;;;;;;;23.52;100.00;157417.56;5026654;28;20455;-90
2023/08/15 00:39:03;;;;;;;10.80;9.93;;;;;;;23.52;100.00;157417.56;5029554;28;20461;-89
2023/08/15 00:41:30;;;;;;;10.90;9.67;;;;;;;23.52;100.00;157417.56;5048198;28;20454;-90
2023/08/15 00:43:58;;;;;;;10.43;9.43;;;;;;;23.52;100.00;157416.25;5026432;28;20475;-89
2023/08/15 00:46:27;;;;;;;10.87;9.87;;;;;;;23.50;100.00;157411.03;5029270;28;20447;-90
2023/08/15 00:48:54;;;;;;;10.73;9.83;;;;;;;23.47;100.00;157403.19;5030606;28;20451;-90
2023/08/15 00:51:23;;;;;;;11.23;10.13;;;;;;;23.43;100.00;157392.75;5043614;28;20601;-89
2023/08/15 00:53:49;;;;;;;13.30;10.27;;;;;;;23.40;100.00;157384.91;5031770;28;20455;-90
2023/08/15 00:56:17;;;;;;;10.50;9.40;;;;;;;23.42;100.00;157390.13;5010514;28;20584;-89
2023/08/15 00:58:43;;;;;;;12.53;11.30;;;;;;;23.42;100.00;157390.13;5038870;28;20575;-89
2023/08/15 01:01:11;;;;;;;10.70;9.80;;;;;;;23.32;100.00;157365.25;5030032;28;20450;-89
2023/08/15 01:03:39;;;;;;;11.53;10.43;;;;;;;23.29;100.00;157356.09;5031906;28;20460;-89
2023/08/15 01:06:06;;;;;;;11.07;10.17;;;;;;;23.25;100.00;157345.63;5032009;28;20459;-89
2023/08/15 01:08:32;;;;;;;11.00;10.10;;;;;;;23.22;100.00;157337.81;5046959;28;20837;-89
2023/08/15 01:10:59;;;;;;;11.53;10.50;;;;;;;23.17;100.00;157324.69;5033194;28;20944;-89
2023/08/15 01:13:29;;;;;;;10.93;9.93;;;;;;;23.18;100.00;157327.34;5048099;28;20469;-88
2023/08/15 01:15:56;;;;;;;10.27;9.40;;;;;;;23.18;100.00;157328.66;5054395;28;20858;-89
2023/08/15 01:18:28;;;;;;;11.37;10.27;;;;;;;23.15;100.00;157319.47;5033776;28;20454;-88
2023/08/15 01:20:56;;;;;;;11.20;10.30;;;;;;;23.21;100.00;157336.50;5050523;28;20459;-89
2023/08/15 01:23:25;;;;;;;10.83;9.93;;;;;;;23.10;100.00;157306.41;5039502;28;20872;-88
2023/08/15 01:25:55;;;;;;;11.20;10.13;;;;;;;23.00;100.00;157281.63;5025231;28;20447;-89
2023/08/15 01:28:22;;;;;;;10.50;9.60;;;;;;;22.95;100.00;157269.81;5029233;28;20936;-89
2023/08/15 01:30:52;;;;;;;11.43;10.43;;;;;;;22.89;100.00;157254.16;5050478;28;20490;-88
2023/08/15 01:33:26;;;;;;;10.67;9.77;;;;;;;22.88;100.00;157251.53;5036968;28;20844;-89
2023/08/15 01:35:59;;;;;;;11.40;10.50;;;;;;;22.86;100.00;157245.00;5046955;28;20881;-89
2023/08/15 01:38:30;;;;;;;12.57;11.37;;;;;;;22.81;100.00;157233.25;5048409;28;20454;-87
2023/08/15 01:41:01;;;;;;;13.17;12.00;;;;;;;22.82;100.00;157234.59;5031715;28;20455;-88
2023/08/15 01:43:28;;;;;;;12.23;11.13;;;;;;;22.80;100.00;157230.63;5037352;28;20455;-88
2023/08/15 01:45:54;;;;;;;12.63;11.50;;;;;;;22.79;100.00;157228.06;5002619;28;20632;-88
2023/08/15 01:48:21;;;;;;;13.57;12.37;;;;;;;22.77;100.00;157222.78;5039734;28;20466;-88
2023/08/15 01:50:48;;;;;;;14.97;13.57;;;;;;;22.76;100.00;157220.22;5035068;28;20532;-88
2023/08/15 01:53:14;;;;;;;14.80;13.50;;;;;;;22.71;100.00;157205.84;5039247;28;20458;-88
2023/08/15 01:55:41;;;;;;;14.23;13.00;;;;;;;22.71;100.00;157207.16;5037246;28;20452;-88
2023/08/15 01:58:09;;;;;;;13.17;11.90;;;;;;;22.70;100.00;157204.50;5011826;28;20809;-87
2023/08/15 02:00:35;;;;;;;13.57;12.30;;;;;;;22.66;100.00;157194.09;5050289;28;21085;-88
2023/08/15 02:03:02;;;;;;;14.07;12.77;;;;;;;22.62;100.00;157182.25;5016158;28;20552;-88
2023/08/15 02:05:28;;;;;;;12.70;11.60;;;;;;;22.55;100.00;157165.28;5047340;28;20455;-87
2023/08/15 02:07:55;;;;;;;14.43;11.70;;;;;;;22.54;100.00;157162.66;5023508;28;20822;-88
2023/08/15 02:10:21;;;;;;;12.67;11.60;;;;;;;22.49;100.00;157149.59;5053614;28;20482;-87
2023/08/15 02:12:48;;;;;;;13.50;12.20;;;;;;;22.47;100.00;157143.06;5024812;28;20459;-87
2023/08/15 02:15:16;;;;;;;14.13;12.83;;;;;;;22.48;100.00;157146.97;5049174;28;20467;-88
2023/08/15 02:17:43;;;;;;;13.63;12.23;;;;;;;22.45;100.00;157139.16;5021852;28;20454;-88
2023/08/15 02:20:10;;;;;;;13.10;11.87;;;;;;;22.40;100.00;157126.06;5052282;28;20482;-88
2023/08/15 02:22:36;;;;;;;13.53;12.40;;;;;;;22.43;100.00;157133.91;5032517;28;20945;-88
2023/08/15 02:25:03;;;;;;;12.93;11.33;;;;;;;22.47;100.00;157143.06;5027487;28;20468;-87
2023/08/15 02:27:30;;;;;;;12.57;11.50;;;;;;;22.39;100.00;157124.81;5031808;28;20451;-87
2023/08/15 02:29:56;;;;;;;13.07;11.93;;;;;;;22.34;100.00;157110.44;5043357;28;20460;-87
2023/08/15 02:32:24;;;;;;;13.63;12.30;;;;;;;22.31;100.00;157103.91;5043297;28;20442;-88
2023/08/15 02:34:52;;;;;;;12.67;11.57;;;;;;;22.31;100.00;157103.91;5025377;28;20487;-87
2023/08/15 02:37:18;;;;;;;12.83;11.63;;;;;;;22.30;100.00;157099.94;5029024;28;20469;-87
2023/08/15 02:39:45;;;;;;;12.67;11.63;;;;;;;22.26;100.00;157089.53;5034812;28;20507;-87
2023/08/15 02:42:12;;;;;;;14.27;13.07;;;;;;;22.25;100.00;157088.22;5036930;28;20461;-87
2023/08/15 02:44:38;;;;;;;13.23;11.93;;;;;;;22.28;100.00;157096.06;5048915;28;20473;-87
2023/08/15 02:47:05;;;;;;;13.70;12.37;;;;;;;22.28;100.00;157094.75;5028173;28;20459;-87
2023/08/15 02:49:35;;;;;;;12.67;11.47;;;;;;;22.30;100.00;157101.25;5045181;28;20473;-87
2023/08/15 02:52:01;;;;;;;12.83;11.73;;;;;;;22.28;100.00;157094.75;5018571;28;20487;-87
2023/08/15 02:54:28;;;;;;;14.13;12.73;;;;;;;22.23;100.00;157083.00;5032939;28;20451;-87
2023/08/15 02:56:54;;;;;;;14.03;12.83;;;;;;;22.23;100.00;157081.69;5031487;28;20455;-87
2023/08/15 02:59:21;;;;;;;14.33;12.30;;;;;;;22.22;100.00;157080.38;5045424;28;20497;-87
2023/08/15 03:01:48;;;;;;;14.10;12.60;;;;;;;22.25;100.00;157086.91;5049443;28;20451;-87
2023/08/15 03:04:14;;;;;;;12.93;11.80;;;;;;;22.27;100.00;157092.13;5029448;28;20459;-87
2023/08/15 03:06:43;;;;;;;13.00;11.80;;;;;;;22.24;100.00;157084.31;5030368;28;20442;-87
2023/08/15 03:09:09;;;;;;;13.03;11.70;;;;;;;22.19;100.00;157072.53;5040020;28;20482;-87
2023/08/15 03:11:36;;;;;;;13.03;11.67;;;;;;;22.17;100.00;157067.31;5014865;28;20481;-87
2023/08/15 03:14:03;;;;;;;14.47;13.00;;;;;;;22.15;100.00;157060.78;5027997;28;20456;-87
2023/08/15 03:16:30;;;;;;;12.63;11.43;;;;;;;22.14;100.00;157058.16;5011176;28;20452;-87
2023/08/15 03:18:56;;;;;;;12.63;11.43;;;;;;;22.09;100.00;157046.41;5032654;28;20467;-88
2023/08/15 03:21:23;;;;;;;12.87;11.73;;;;;;;22.09;100.00;157045.09;5031648;28;20550;-88
2023/08/15 03:23:51;;;;;;;13.97;12.60;;;;;;;22.06;100.00;157037.25;5031130;28;20458;-88
2023/08/15 03:26:17;;;;;;;14.00;12.70;;;;;;;22.04;100.00;157033.38;5046787;28;20873;-88
2023/08/15 03:28:45;;;;;;;13.40;12.20;;;;;;;22.06;100.00;157037.25;5021459;28;20490;-88
2023/08/15 03:31:12;;;;;;;13.33;12.10;;;;;;;22.02;100.00;157026.84;5016870;28;20474;-88
2023/08/15 03:33:43;;;;;;;14.23;12.70;;;;;;;22.07;100.00;157041.22;5029112;28;20610;-88
2023/08/15 03:36:11;;;;;;;13.60;12.27;;;;;;;22.00;100.00;157022.88;5019655;28;20451;-88
2023/08/15 03:38:38;;;;;;;14.30;12.90;;;;;;;21.98;100.00;157017.69;5045585;28;20877;-89
2023/08/15 03:41:07;;;;;;;13.07;11.90;;;;;;;21.98;100.00;157016.38;5051902;28;20455;-89
2023/08/15 03:43:35;;;;;;;14.23;13.03;;;;;;;21.91;100.00;156998.09;5028629;28;20488;-88
2023/08/15 03:46:05;;;;;;;12.87;11.77;;;;;;;21.87;100.00;156988.94;5025207;28;20498;-88
2023/08/15 03:48:34;;;;;;;12.90;11.80;;;;;;;21.84;100.00;156981.09;5012640;28;20460;-88
2023/08/15 03:51:01;;;;;;;13.70;12.43;;;;;;;21.81;100.00;156974.56;5031442;28;20557;-85
2023/08/15 03:53:28;;;;;;;14.23;12.83;;;;;;;21.84;100.00;156982.38;5031605;28;20983;-84
2023/08/15 03:55:55;;;;;;;13.60;12.30;;;;;;;21.78;100.00;156966.75;5027268;28;21487;-85
2023/08/15 03:58:24;;;;;;;12.93;11.83;;;;;;;21.74;100.00;156954.94;5028828;28;20836;-85
2023/08/15 04:00:51;;;;;;;13.17;11.87;;;;;;;21.71;100.00;156948.44;5013543;28;20448;-85
2023/08/15 04:03:18;;;;;;;13.20;12.00;;;;;;;21.72;100.00;156949.75;5032862;28;20462;-85
2023/08/15 04:05:45;;;;;;;13.37;12.07;;;;;;;21.74;100.00;156954.94;5028718;28;20495;-85
2023/08/15 04:08:12;;;;;;;12.30;11.20;;;;;;;21.79;100.00;156969.31;5030733;28;20457;-85
2023/08/15 04:10:40;;;;;;;12.50;11.40;;;;;;;21.81;100.00;156973.25;5037615;28;20585;-85
2023/08/15 04:13:07;;;;;;;13.50;12.30;;;;;;;21.74;100.00;156956.25;5013310;28;20464;-85
2023/08/15 04:15:37;;;;;;;13.57;12.37;;;;;;;21.72;100.00;156949.75;5012417;28;20502;-85
2023/08/15 04:18:04;;;;;;;13.57;12.27;;;;;;;21.71;100.00;156948.44;5018346;28;20454;-85
2023/08/15 04:20:31;;;;;;;13.67;12.00;;;;;;;21.73;100.00;156953.69;5031597;28;20455;-85
2023/08/15 04:22:57;;;;;;;14.10;12.80;;;;;;;21.72;100.00;156951.06;5047473;28;20459;-84
2023/08/15 04:25:26;;;;;;;13.53;12.30;;;;;;;21.77;100.00;156964.09;5014639;28;20468;-84
2023/08/15 04:27:53;;;;;;;12.50;11.40;;;;;;;21.73;100.00;156953.69;5030597;28;20810;-84
2023/08/15 04:30:20;;;;;;;12.40;11.30;;;;;;;21.73;100.00;156953.69;5029472;28;20451;-85
2023/08/15 04:32:48;;;;;;;13.10;11.80;;;;;;;21.73;100.00;156953.69;5047524;28;20486;-84
2023/08/15 04:35:15;;;;;;;12.30;11.20;;;;;;;21.69;100.00;156941.91;5051570;28;20542;-84
2023/08/15 04:37:42;;;;;;;12.57;11.27;;;;;;;21.68;100.00;156940.59;5047860;28;20841;-85
2023/08/15 04:40:12;;;;;;;12.67;11.43;;;;;;;21.69;100.00;156941.91;5049293;28;20610;-84
2023/08/15 04:42:39;;;;;;;13.00;11.80;;;;;;;21.73;100.00;156952.38;5017584;28;20479;-84
2023/08/15 04:45:08;;;;;;;13.17;11.97;;;;;;;21.75;100.00;156958.91;5037633;28;20828;-84
2023/08/15 04:47:38;;;;;;;15.03;13.83;;;;;;;21.78;100.00;156965.41;5015813;28;20595;-84
2023/08/15 04:50:10;;;;;;;13.50;12.30;;;;;;;21.71;100.00;156948.44;5033416;28;20796;-84
2023/08/15 04:52:36;;;;;;;11.63;10.53;;;;;;;21.68;100.00;156939.31;5021963;28;20467;-84
2023/08/15 04:55:03;;;;;;;11.60;10.50;;;;;;;21.66;100.00;156935.38;5033606;28;20463;-84
2023/08/15 04:57:30;;;;;;;12.27;11.13;;;;;;;21.68;100.00;156939.31;5014836;28;20530;-84
2023/08/15 04:59:56;;;;;;;12.17;11.17;;;;;;;21.72;100.00;156951.06;5028947;28;20471;-84
2023/08/15 05:02:25;;;;;;;12.17;11.17;;;;;;;21.74;100.00;156956.25;5031709;28;20459;-83
2023/08/15 05:04:52;;;;;;;11.27;10.30;;;;;;;21.75;100.00;156958.91;5040467;28;20459;-84
2023/08/15 05:07:20;;;;;;;10.80;9.80;;;;;;;21.73;100.00;156953.69;5030999;28;20466;-83
2023/08/15 05:09:46;;;;;;;12.63;11.53;;;;;;;21.81;100.00;156974.56;5031898;28;20462;-84
2023/08/15 05:12:13;;;;;;;11.23;10.33;;;;;;;21.88;100.00;156990.25;5019569;28;20493;-83
2023/08/15 05:14:39;;;;;;;12.27;11.17;;;;;;;21.87;100.00;156988.94;5048333;28;20969;-84
2023/08/15 05:17:06;;;;;;;13.07;11.97;;;;;;;21.85;100.00;156985.00;5032657;28;20482;-83
2023/08/15 05:19:32;;;;;;;12.23;11.03;;;;;;;21.89;100.00;156992.88;5019625;28;20852;-85
2023/08/15 05:21:59;;;;;;;11.80;10.70;;;;;;;21.98;100.00;157017.69;5029670;28;20942;-83
2023/08/15 05:24:27;;;;;;;12.93;11.70;;;;;;;22.20;100.00;157073.84;5038566;28;20566;-83
2023/08/15 05:26:55;;;;;;;12.17;11.07;;;;;;;22.37;100.00;157118.28;5030063;28;20508;-83
2023/08/15 05:29:21;;;;;;;13.80;11.57;;;;;;;22.61;100.00;157180.94;5032340;28;20470;-84
2023/08/15 05:31:48;;;;;;;12.27;11.23;;;;;;;22.88;100.00;157251.53;5044572;28;20487;-83
2023/08/15 05:34:14;;;;;;;12.07;10.93;;;;;;;23.13;100.00;157314.28;5032469;28;20898;-83
2023/08/15 05:36:41;;;;;;;11.63;10.50;;;;;;;23.41;100.00;157387.50;5045143;28;20482;-84
2023/08/15 05:39:08;;;;;;;11.43;10.43;;;;;;;23.63;100.00;157446.34;5059952;28;20458;-84
2023/08/15 05:41:36;;;;;;;11.30;10.30;;;;;;;23.86;100.00;157505.16;5037971;28;20539;-84
2023/08/15 05:44:02;;;;;;;11.00;10.10;;;;;;;24.06;100.00;157556.16;5027999;28;20896;-84
2023/08/15 05:46:29;;;;;;;11.30;10.30;;;;;;;24.16;100.00;157583.69;5048250;28;20458;-84
2023/08/15 05:48:55;;;;;;;12.63;11.40;;;;;;;24.35;100.00;157630.75;5048524;28;20465;-84
2023/08/15 05:51:22;;;;;;;12.77;11.57;;;;;;;24.48;100.00;157664.75;5049926;28;20474;-84
2023/08/15 05:53:48;;;;;;;11.97;10.87;;;;;;;24.50;100.00;157671.28;5029845;28;20455;-84
2023/08/15 05:56:15;;;;;;;11.60;10.70;;;;;;;24.53;100.00;157679.16;5030713;28;20532;-84
2023/08/15 05:58:43;;;;;;;10.63;9.73;;;;;;;24.57;100.00;157688.31;5047060;28;20834;-84
2023/08/15 06:01:09;;;;;;;10.80;9.80;;;;;;;24.56;100.00;157685.69;5030846;28;20540;-84
2023/08/15 06:03:36;;;;;;;11.80;10.77;;;;;;;24.48;100.00;157666.06;5046254;28;20458;-92
2023/08/15 06:06:03;;;;;;;10.87;9.77;;;;;;;24.38;100.00;157639.91;5034037;28;20462;-90
2023/08/15 06:08:29;;;;;;;10.90;9.90;;;;;;;24.30;100.00;157617.66;5032658;28;20454;-92
2023/08/15 06:10:56;;;;;;;10.60;9.80;;;;;;;24.24;100.00;157603.28;5016704;28;20502;-91
2023/08/15 06:13:22;;;;;;;11.20;9.83;;;;;;;24.19;100.00;157591.53;5046858;28;20890;-91
2023/08/15 06:15:51;;;;;;;11.63;10.33;;;;;;;24.13;100.00;157575.81;5046605;28;20455;-91
2023/08/15 06:18:18;;;;;;;10.13;9.23;;;;;;;24.14;100.00;157578.47;5027694;28;20858;-90
2023/08/15 06:20:45;;;;;;;11.50;10.40;;;;;;;24.19;100.00;157590.22;5042612;28;20825;-91
2023/08/15 06:23:11;;;;;;;11.20;10.17;;;;;;;24.26;100.00;157607.19;5024883;28;20974;-91
2023/08/15 06:25:39;;;;;;;11.07;9.90;;;;;;;24.34;100.00;157628.13;5037656;28;20465;-91
2023/08/15 06:28:06;;;;;;;10.40;9.50;;;;;;;24.40;100.00;157645.13;5048360;28;20450;-91
2023/08/15 06:30:32;;;;;;;11.80;9.83;;;;;;;24.43;100.00;157653.00;5046317;28;20797;-91
2023/08/15 06:33:01;;;;;;;11.83;10.60;;;;;;;24.46;100.00;157660.84;5026472;28;20482;-91
2023/08/15 06:35:28;;;;;;;10.70;9.13;;;;;;;24.45;100.00;157656.91;5027916;28;20490;-91
2023/08/15 06:37:55;;;;;;;10.20;9.20;;;;;;;24.47;100.00;157662.13;5041564;28;20726;-90
2023/08/15 06:40:22;;;;;;;11.00;10.00;;;;;;;24.47;100.00;157662.13;5040163;28;20540;-90
2023/08/15 06:42:48;;;;;;;10.73;9.37;;;;;;;24.50;100.00;157671.28;5026952;28;20451;-90
2023/08/15 06:45:16;;;;;;;9.83;9.03;;;;;;;24.58;100.00;157690.91;5038414;28;20454;-91
2023/08/15 06:47:43;;;;;;;11.10;10.10;;;;;;;24.74;100.00;157732.75;5045436;28;20549;-92
2023/08/15 06:50:11;;;;;;;10.67;9.53;;;;;;;24.96;100.00;157789.09;5047018;28;20486;-92
2023/08/15 06:52:38;;;;;;;10.70;9.53;;;;;;;25.31;100.00;157881.97;5039136;28;20528;-91
2023/08/15 06:55:06;;;;;;;10.73;9.83;;;;;;;25.53;100.00;157936.97;5030147;28;20467;-93
2023/08/15 06:57:33;;;;;;;8.77;8.07;;;;;;;25.73;100.00;157989.38;5027843;28;20454;-93
2023/08/15 06:59:59;;;;;;;9.00;8.20;;;;;;;25.81;100.00;158011.63;5061062;28;20557;-93
2023/08/15 07:02:26;;;;;;;11.30;9.70;;;;;;;25.88;100.00;158028.63;5047270;28;20486;-93
2023/08/15 07:04:53;;;;;;;10.17;9.37;;;;;;;26.02;94.42;158065.31;5021342;28;20459;-94
2023/08/15 07:07:21;;;;;;;9.83;8.93;;;;;;;26.31;96.90;158141.31;5036424;28;20465;-93
2023/08/15 07:09:47;;;;;;;8.67;7.97;;;;;;;26.50;96.91;158189.75;5044632;28;20868;-91
2023/08/15 07:12:17;;;;;;;9.50;8.70;;;;;;;26.79;90.46;158264.47;5022351;28;20477;-87
2023/08/15 07:14:44;;;;;;;10.60;8.80;;;;;;;27.04;90.37;158329.94;5047380;28;20446;-96
2023/08/15 07:17:11;;;;;;;9.73;8.87;;;;;;;27.31;87.07;158400.69;5030985;28;20999;-93
2023/08/15 07:19:38;;;;;;;9.00;8.20;;;;;;;27.49;82.84;158447.94;5051312;28;20453;-94
2023/08/15 07:22:05;;;;;;;8.73;7.50;;;;;;;27.70;84.88;158502.97;5051050;28;20446;-94
2023/08/15 07:24:32;;;;;;;9.10;8.27;;;;;;;27.76;81.14;158518.72;5049751;28;20446;-94
2023/08/15 07:26:59;;;;;;;8.17;7.57;;;;;;;27.88;81.44;158547.56;5049695;28;20434;-95
2023/08/15 07:29:26;;;;;;;8.13;7.33;;;;;;;27.94;83.85;158563.25;5049712;28;20456;-94
2023/08/15 07:31:52;;;;;;;8.80;7.83;;;;;;;27.86;84.62;158543.59;5051193;28;20521;-95
2023/08/15 07:34:19;;;;;;;11.70;8.83;;;;;;;27.87;82.02;158544.91;5051449;28;20495;-95
2023/08/15 07:36:45;;;;;;;8.20;7.60;;;;;;;27.74;78.16;158513.47;5049953;28;20451;-95
2023/08/15 07:39:12;;;;;;;9.37;8.53;;;;;;;27.74;78.44;158512.16;5050471;28;20453;-95
2023/08/15 07:41:41;;;;;;;8.83;8.00;;;;;;;27.58;84.46;158470.22;5050852;28;20957;-95
2023/08/15 07:44:08;;;;;;;9.60;8.73;;;;;;;27.69;80.39;158499.06;5032828;28;20450;-94
2023/08/15 07:46:34;;;;;;;9.43;8.53;;;;;;;27.91;78.41;158555.38;5049911;28;20434;-96
2023/08/15 07:49:01;;;;;;;9.77;8.97;;;;;;;28.06;78.08;158594.78;5049581;28;20869;-94
2023/08/15 07:51:27;;;;;;;8.73;7.90;;;;;;;28.31;77.62;158661.63;5049602;28;20439;-96
2023/08/15 07:53:54;;;;;;;8.47;7.57;;;;;;;28.47;74.04;158702.28;5049440;28;20483;-95
2023/08/15 07:56:20;;;;;;;9.10;8.30;;;;;;;28.64;71.42;158746.94;5051401;28;20742;-96
2023/08/15 07:58:48;;;;;;;10.73;8.73;;;;;;;28.80;71.93;158788.91;5050051;28;20437;-96
2023/08/15 08:01:15;;;;;;;9.70;8.70;;;;;;;28.86;70.19;158804.63;5054081;28;20450;-96
2023/08/15 08:03:42;;;;;;;9.13;8.23;;;;;;;28.98;76.10;158836.13;5051345;28;20436;-96
2023/08/15 08:06:09;;;;;;;9.57;8.67;;;;;;;29.16;73.40;158882.03;5051976;28;20439;-95
2023/08/15 08:08:35;;;;;;;8.43;7.63;;;;;;;29.19;70.19;158888.59;5053277;28;20461;-96
2023/08/15 08:11:02;;;;;;;9.50;8.70;;;;;;;29.17;70.66;158884.66;5054791;28;20462;-96
2023/08/15 08:13:28;;;;;;;9.53;8.63;;;;;;;29.19;72.31;158888.59;5037115;28;20485;-96
2023/08/15 08:15:59;;;;;;;11.40;8.57;;;;;;;28.98;71.13;158834.81;5037041;28;20453;-95
2023/08/15 08:18:26;;;;;;;8.03;7.33;;;;;;;28.84;71.65;158799.38;5037240;28;20441;-94
2023/08/15 08:20:53;;;;;;;10.90;8.80;;;;;;;28.77;72.55;158779.72;5055305;28;20453;-95
2023/08/15 08:23:20;;;;;;;9.03;8.23;;;;;;;28.59;72.58;158732.47;5037021;28;20462;-95
2023/08/15 08:25:46;;;;;;;9.40;8.60;;;;;;;28.45;73.43;158697.06;5054995;28;20455;-95
2023/08/15 08:28:13;;;;;;;9.73;8.57;;;;;;;28.41;73.03;158685.25;5036817;28;20446;-95
2023/08/15 08:30:42;;;;;;;8.83;8.03;;;;;;;28.22;73.27;158638.03;5036680;28;20449;-94
2023/08/15 08:33:12;;;;;;;10.70;8.90;;;;;;;28.15;74.22;158619.69;5032848;28;20495;-95
2023/08/15 08:35:39;;;;;;;8.93;8.23;;;;;;;28.14;73.08;158615.78;5016111;28;20453;-94
2023/08/15 08:38:06;;;;;;;9.33;8.43;;;;;;;28.00;74.67;158579.00;5016074;28;20501;-95
2023/08/15 08:40:32;;;;;;;9.03;8.23;;;;;;;27.94;76.74;158563.25;5021139;28;20451;-95
2023/08/15 08:42:59;;;;;;;10.07;8.97;;;;;;;28.12;78.09;158610.50;5016383;28;20436;-95
2023/08/15 08:45:28;;;;;;;9.80;9.00;;;;;;;28.36;76.15;158674.75;5016845;28;20442;-95
2023/08/15 08:47:55;;;;;;;10.77;9.13;;;;;;;28.67;74.46;158753.50;5050485;28;20863;-95
2023/08/15 08:50:23;;;;;;;9.67;8.80;;;;;;;28.98;72.84;158836.13;5017210;28;20497;-96
2023/08/15 08:52:52;;;;;;;9.83;8.93;;;;;;;29.09;74.61;158862.34;5034074;28;20533;-96
2023/08/15 08:55:20;;;;;;;9.10;8.20;;;;;;;29.26;72.80;158906.97;5016737;28;20452;-95
2023/08/15 08:57:50;;;;;;;9.10;8.20;;;;;;;29.39;72.32;158942.41;4999731;28;20523;-96
2023/08/15 09:00:19;;;;;;;10.40;9.37;;;;;;;29.40;74.19;158943.75;5015965;28;20501;-95
2023/08/15 09:02:45;;;;;;;11.40;8.80;;;;;;;29.31;73.15;158920.16;5016771;28;20468;-95
2023/08/15 09:05:12;;;;;;;9.70;8.60;;;;;;;29.22;74.19;158897.84;5033031;28;20477;-96
2023/08/15 09:07:42;;;;;;;9.53;8.47;;;;;;;29.19;73.74;158888.59;5016506;28;20431;-95
2023/08/15 09:10:09;;;;;;;9.63;8.70;;;;;;;29.16;71.94;158880.69;5016232;28;20543;-96
2023/08/15 09:12:37;;;;;;;8.60;7.90;;;;;;;29.08;71.45;158859.72;5016032;28;20526;-95
2023/08/15 09:15:09;;;;;;;7.53;6.90;;;;;;;29.12;72.46;158870.22;5016173;28;20537;-95
2023/08/15 09:17:36;;;;;;;8.27;7.67;;;;;;;29.10;72.21;158865.00;4999928;28;20448;-95
2023/08/15 09:20:11;;;;;;;7.87;7.10;;;;;;;29.28;76.25;158912.28;5000524;28;20447;-95
2023/08/15 09:22:40;;;;;;;6.97;6.30;;;;;;;29.35;65.18;158930.63;5017427;28;20442;-95
2023/08/15 09:25:10;;;;;;;7.83;6.60;;;;;;;29.60;68.19;158996.19;5032862;28;20448;-96
2023/08/15 09:27:40;;;;;;;9.20;5.90;;;;;;;29.71;67.36;159025.09;5016180;28;20509;-94
2023/08/15 09:30:09;;;;;;;6.07;5.27;;;;;;;29.71;60.44;159023.75;5025265;28;20455;-94
2023/08/15 09:32:35;;;;;;;4.97;4.07;;;;;;;29.77;60.31;159040.84;5028938;28;20847;-94
2023/08/15 09:35:03;;;;;;;4.37;3.37;;;;;;;29.73;59.95;159030.38;5018655;28;20518;-95
2023/08/15 09:37:29;;;;;;;5.00;3.70;;;;;;;29.72;64.76;159027.72;5014864;28;20514;-95
2023/08/15 09:39:57;;;;;;;5.80;3.63;;;;;;;29.58;63.77;158992.28;5014861;28;20881;-95
2023/08/15 09:42:25;;;;;;;8.30;3.80;;;;;;;29.53;63.15;158979.16;5014462;28;20450;-95
2023/08/15 09:44:52;;;;;;;6.00;3.73;;;;;;;29.43;59.86;158952.94;5014546;28;20459;-96
2023/08/15 09:47:19;;;;;;;4.13;3.57;;;;;;;29.42;62.04;158948.97;5014716;28;20448;-95
2023/08/15 09:49:46;;;;;;;5.00;3.60;;;;;;;29.36;56.82;158933.25;5014385;28;20463;-96
2023/08/15 09:52:13;;;;;;;4.83;3.50;;;;;;;29.40;60.01;158945.06;5014454;28;21046;-95
2023/08/15 09:54:43;;;;;;;4.77;3.83;;;;;;;29.42;60.54;158950.28;5031138;28;20510;-95
2023/08/15 09:57:10;;;;;;;6.97;3.50;;;;;;;29.36;58.15;158933.25;5031790;28;20466;-96
2023/08/15 09:59:39;;;;;;;5.03;4.13;;;;;;;29.38;61.62;158939.81;5015074;28;20484;-95
2023/08/15 10:02:15;;;;;;;4.67;3.67;;;;;;;29.34;62.49;158927.97;5014468;28;20458;-95
2023/08/15 10:04:42;;;;;;;4.00;3.60;;;;;;;29.35;56.72;158931.94;5031057;28;20485;-95
2023/08/15 10:07:09;;;;;;;4.50;4.03;;;;;;;29.47;61.18;158962.09;5014713;28;20436;-96
2023/08/15 10:09:36;;;;;;;7.37;4.93;;;;;;;29.39;59.70;158941.09;5031867;28;20467;-95
2023/08/15 10:12:04;;;;;;;4.93;3.70;;;;;;;29.38;58.81;158938.50;5013964;28;20814;-95
2023/08/15 10:14:32;;;;;;;5.60;4.63;;;;;;;29.43;60.59;158951.63;5013738;28;20518;-96
2023/08/15 10:17:00;;;;;;;6.23;3.90;;;;;;;29.36;55.17;158933.25;5030480;28;20458;-95
2023/08/15 10:19:30;;;;;;;7.13;4.43;;;;;;;29.41;67.39;158946.38;5013563;28;20499;-95
2023/08/15 10:21:57;;;;;;;5.60;4.60;;;;;;;29.30;65.46;158918.81;5013327;28;20452;-95
2023/08/15 10:24:23;;;;;;;6.00;4.33;;;;;;;29.22;62.22;158897.84;5013181;28;20456;-95
2023/08/15 10:26:53;;;;;;;5.70;4.60;;;;;;;29.15;60.81;158878.13;5023748;28;21032;-95
2023/08/15 10:29:20;;;;;;;4.40;3.83;;;;;;;29.21;71.87;158893.88;5029424;28;20470;-95
2023/08/15 10:31:47;;;;;;;4.80;4.40;;;;;;;29.11;69.28;158868.91;5012753;28;20535;-95
2023/08/15 10:34:18;;;;;;;5.53;4.67;;;;;;;29.02;62.14;158844.00;4999057;28;1128375;-95
2023/08/15 10:36:46;;;;;;;5.10;4.13;;;;;;;28.99;60.62;158837.44;5023580;28;20225;-94
2023/08/15 10:39:15;;;;;;;5.10;4.50;;;;;;;28.99;65.92;158838.72;5010648;28;20582;-94
2023/08/15 10:41:42;;;;;;;5.27;4.77;;;;;;;28.93;59.78;158821.69;5028724;28;20459;-95
2023/08/15 10:44:10;;;;;;;6.60;5.10;;;;;;;28.97;67.76;158832.16;5016098;28;20452;-94
2023/08/15 10:46:37;;;;;;;5.03;3.97;;;;;;;28.85;58.47;158800.72;5019387;28;20604;-94
2023/08/15 10:49:07;;;;;;;5.77;4.70;;;;;;;28.94;66.50;158825.59;5013896;28;20470;-92
2023/08/15 10:51:36;;;;;;;6.67;4.07;;;;;;;28.93;68.41;158823.03;5025031;28;20451;-95
2023/08/15 10:54:04;;;;;;;4.97;4.30;;;;;;;28.91;64.18;158817.72;5037093;28;20594;-93
2023/08/15 10:56:33;;;;;;;5.37;4.70;;;;;;;29.03;63.33;158846.59;5013873;28;20448;-94
2023/08/15 10:59:03;;;;;;;5.37;4.77;;;;;;;29.01;62.16;158841.38;5036486;28;20443;-94
2023/08/15 11:01:31;;;;;;;4.50;4.10;;;;;;;29.06;64.08;158854.47;5014341;28;20574;-95
2023/08/15 11:03:58;;;;;;;4.77;4.37;;;;;;;29.03;62.37;158847.91;5006889;28;20507;-94
2023/08/15 11:06:25;;;;;;;5.70;3.80;;;;;;;29.09;64.03;158862.34;5014540;28;20459;-94
2023/08/15 11:08:54;;;;;;;3.20;2.90;;;;;;;29.15;60.90;158878.13;5012262;28;20639;-94
2023/08/15 11:11:21;;;;;;;5.47;3.80;;;;;;;29.17;60.57;158884.66;5011014;28;20444;-95
2023/08/15 11:13:49;;;;;;;3.87;3.57;;;;;;;29.19;65.47;158888.59;5025220;28;20486;-93